Terminal Aerodrome Forecast
Issued by NWS

Home | Current Version | Previous Version | Text Only | Print | Product List | Glossary Off
Versions: 1 2 3 4 5 6 7 8 9 10 11 12 13 14 15 16 17 18 19 20 21 22 23 24 25 26 27

000
FTUS45 KGGW 211600 AAA
TAFGDV
TAF AMD
KGDV 211619Z 2116/2212 04007KT P6SM -SHRA SCT080
     FM212300 35012KT P6SM SCT050 BKN100
      TEMPO 2200/2204 5SM TSRA OVC040CB
     FM220600 01006KT P6SM SCT080
      AMD LTD TO CLD VIS AND WIND=

USA.gov is the U.S. government's official web portal to all federal, state and local government web resources and services.